• Join FlightAware (Why Join?)
  • Login
  • US Flag 
Gobble Gobble! 
05:14PM EST


 

Airport Tracker/Info


-or-


 

Live Flight TrackerFlight Track Log ✈ EGF2880 ✈ 11-Oct-2013 ✈ KGJT - KDFW

Flight Track Log - Related Links

Times and Time Zones

All times are in EDT time to prevent confusion due to time zone crossing. See the EGF2880 flight status page for this flight to view local times or setup timezone preferences in your user account.

Time Position Orientation Groundspeed Altitude Reporting Facility
EDT Latitude Longitude Course Direction KTS MPH feet Rate Location/Type
08:52AM 39.0994 -108.4967 119° Southeast 180 207 6,000  Level Denver Center
08:53AM 39.0431 -108.4719 161° South 213 245 8,100 2,040 Climbing Denver Center
08:54AM 38.9563 -108.1629 123° Southeast  Level Estimated
08:54AM 38.9842 -108.4347 154° Southeast 243 280 10,200  Level Denver Center
08:55AM 38.9007 -108.0420 121° Southeast  Level Estimated
08:55AM 38.9286 -108.3631 135° Southeast 277 319 11,900  Level Denver Center
08:56AM 38.8450 -107.9213 121° Southeast  Level FlightAware Approximate
08:56AM 38.8919 -108.2644 116° Southeast 309 356 13,200  Level Denver Center
08:57AM 38.7891 -107.8007 119° Southeast  Level Estimated
08:57AM 38.8583 -108.1681 114° Southeast 336 387 14,200  Level Denver Center
08:58AM 38.8111 -108.0367 115° Southeast 366 421 15,500 1,380 Climbing Denver Center
08:59AM 38.7700 -107.9219 115° Southeast 370 426 17,100 1,620 Climbing Denver Center
09:00AM 38.7225 -107.7869 114° Southeast 373 429 18,800 1,680 Climbing Denver Center
09:01AM 38.6806 -107.6722 115° Southeast 372 428 20,600 1,740 Climbing Denver Center
09:02AM 38.6389 -107.5575 115° Southeast 371 427 22,400 1,860 Climbing Denver Center
09:03AM 38.5914 -107.4219 114° Southeast 374 430 24,400 1,740 Climbing Denver Center
09:04AM 38.5500 -107.3108 115° Southeast 366 421 26,000 1,440 Climbing Denver Center
09:05AM 38.5083 -107.1967 115° Southeast 368 423 27,400 1,560 Climbing Denver Center
09:06AM 38.4633 -107.0742 115° Southeast 370 426 29,200 1,680 Climbing Denver Center
09:07AM 38.3994 -106.9800 131° Southeast 352 405 30,800 1,320 Climbing Denver Center
09:08AM 38.3256 -106.8981 139° Southeast 351 404 31,900 1,020 Climbing Denver Center
09:09AM 38.2417 -106.8031 138° Southeast 360 414 32,900 900 Climbing Denver Center
09:10AM 38.1667 -106.7186 138° Southeast 372 428 33,800 840 Climbing Denver Center
09:11AM 38.0906 -106.6350 139° Southeast 377 434 34,700 540 Climbing Denver Center
09:12AM 38.0011 -106.5339 138° Southeast 383 441 35,000 120 Climbing Denver Center
09:13AM 37.9214 -106.4397 137° Southeast 397 457 35,000  Level Denver Center
09:14AM 37.8336 -106.3408 138° Southeast 417 480 35,000  Level Denver Center
09:15AM 37.7189 -106.2217 141° Southeast 453 521 35,000  Level Denver Center
09:16AM 37.6306 -106.1256 139° Southeast 448 516 35,000  Level Denver Center
09:17AM 37.5389 -106.0247 139° Southeast 445 512 35,000  Level Denver Center
09:18AM 37.4300 -105.9056 139° Southeast 458 527 35,000  Level Denver Center
09:19AM 37.3425 -105.7986 136° Southeast 463 533 35,000  Level Denver Center
09:20AM 37.2717 -105.6644 124° Southeast 487 560 35,000  Level Denver Center
09:21AM 37.1972 -105.5025 120° Southeast 484 557 35,000  Level Denver Center
09:22AM 37.1303 -105.3658 122° Southeast 482 555 35,000  Level Denver Center
09:23AM 37.0631 -105.2306 122° Southeast 480 552 35,000  Level Denver Center
09:24AM 36.9936 -105.0889 122° Southeast 474 545 35,000  Level Denver Center
09:25AM 36.9231 -104.9461 122° Southeast 478 550 35,000  Level Denver Center
09:26AM 36.8533 -104.8039 121° Southeast 479 551 35,000  Level Denver Center
09:27AM 36.8014 -104.6825 118° Southeast 480 552 35,000  Level Albuquerque Center
09:28AM 36.7339 -104.5225 118° Southeast 478 550 35,000  Level Albuquerque Center
09:29AM 36.6758 -104.3897 119° Southeast 475 547 35,000  Level Albuquerque Center
09:30AM 36.6142 -104.2483 118° Southeast 466 536 35,000  Level Albuquerque Center
09:31AM 36.5528 -104.1086 119° Southeast 459 528 35,000  Level Albuquerque Center
09:32AM 36.4914 -103.9692 119° Southeast 455 524 35,000  Level Albuquerque Center
09:33AM 36.4311 -103.8314 119° Southeast 452 520 35,000  Level Albuquerque Center
09:34AM 36.3697 -103.6933 119° Southeast 451 519 35,000  Level Albuquerque Center
09:35AM 36.3097 -103.5583 119° Southeast 447 514 35,000  Level Albuquerque Center
09:36AM 36.2472 -103.4186 119° Southeast 453 521 35,000  Level Albuquerque Center
09:37AM 36.1839 -103.2756 119° Southeast 464 534 35,000  Level Albuquerque Center
09:38AM 36.1189 -103.1314 119° Southeast 471 542 35,000  Level Albuquerque Center
09:39AM 36.0425 -102.9636 119° Southeast 474 545 35,000  Level Albuquerque Center
09:40AM 35.9775 -102.8189 119° Southeast 477 549 35,000  Level Albuquerque Center
09:41AM 35.9122 -102.6753 119° Southeast 480 552 35,000  Level Albuquerque Center
09:42AM 35.8475 -102.5328 119° Southeast 479 551 35,000  Level Albuquerque Center
09:43AM 35.7836 -102.3942 120° Southeast 470 541 35,000  Level Albuquerque Center
09:44AM 35.7203 -102.2569 120° Southeast 463 533 35,000  Level Albuquerque Center
09:45AM 35.6589 -102.1228 119° Southeast 455 524 35,000  Level Albuquerque Center
09:46AM 35.5969 -101.9886 120° Southeast 451 519 35,000  Level Albuquerque Center
09:47AM 35.5342 -101.8544 120° Southeast 452 520 35,000  Level Albuquerque Center
09:48AM 35.4664 -101.7100 120° Southeast 450 518 35,000  Level Albuquerque Center
09:49AM 35.4111 -101.5875 119° Southeast 446 513 35,000  Level Albuquerque Center
09:50AM 35.3472 -101.4547 121° Southeast 448 516 35,000  Level Albuquerque Center
09:51AM 35.2806 -101.3153 120° Southeast 455 524 35,000  Level Albuquerque Center
09:52AM 35.2153 -101.1789 120° Southeast 460 529 35,000  Level Albuquerque Center
09:54AM 35.1506 -101.0436 120° Southeast 460 529 35,000  Level Albuquerque Center
09:55AM 35.0861 -100.9089 120° Southeast 460 529 35,000  Level Albuquerque Center
09:56AM 35.0086 -100.7475 120° Southeast 460 529 35,000  Level Albuquerque Center
09:57AM 34.9439 -100.6125 120° Southeast 462 532 35,000  Level Albuquerque Center
09:58AM 34.8772 -100.4769 121° Southeast 465 535 35,000  Level Albuquerque Center
09:59AM 34.8139 -100.3464 121° Southeast 465 535 35,000  Level Albuquerque Center
10:00AM 34.7478 -100.2106 121° Southeast 466 536 35,000  Level Albuquerque Center
10:01AM 34.6800 -100.0742 121° Southeast 470 541 35,000  Level Albuquerque Center
10:02AM 34.6106 -99.9325 121° Southeast 482 555 35,000  Level Albuquerque Center
10:03AM 34.5431 -99.7883 120° Southeast 476 548 35,000  Level Fort Worth Center
10:04AM 34.4683 -99.6453 122° Southeast 481 554 35,000  Level Fort Worth Center
10:05AM 34.4000 -99.5075 121° Southeast 486 559 35,000  Level Fort Worth Center
10:06AM 34.3292 -99.3725 122° Southeast 480 552 35,000  Level Fort Worth Center
10:07AM 34.2581 -99.2303 121° Southeast 480 552 35,000 -960 Level Fort Worth Center
10:08AM 34.1869 -99.0931 122° Southeast 486 559 33,100 -1,980 Descending Fort Worth Center
10:09AM 34.1178 -98.9539 121° Southeast 479 551 31,100 -2,160 Descending Fort Worth Center
10:10AM 34.0547 -98.8250 121° Southeast 473 544 28,800 -2,760 Descending Fort Worth Center
10:11AM 33.9872 -98.6911 121° Southeast 445 512 25,600 -2,400 Descending Fort Worth Center
10:12AM 33.9197 -98.5597 122° Southeast 445 512 24,000 -840 Descending Fort Worth Center
10:13AM 33.8519 -98.4239 121° Southeast 457 526 24,000  Level Fort Worth Center
10:14AM 33.7842 -98.2956 122° Southeast 462 532 24,000 -720 Level Fort Worth Center
10:15AM 33.7244 -98.1828 122° Southeast 456 525 22,600 -2,220 Descending Fort Worth Center
10:16AM 33.6603 -98.0622 123° Southeast 449 517 19,600 -3,240 Descending Fort Worth Center
10:17AM 33.5942 -97.9347 122° Southeast 417 480 16,200 -2,940 Descending Fort Worth Center
10:18AM 33.5319 -97.8222 124° Southeast 417 480 13,800 -1,740 Descending Fort Worth Center
10:19AM 33.4736 -97.7472 133° Southeast 374 430 12,800 -1,200 Descending Fort Worth Center
10:20AM 33.4092 -97.6747 137° Southeast 305 351 11,400 -900 Descending Fort Worth Center
10:21AM 33.3531 -97.6075 135° Southeast 289 333 11,000 -840 Descending Fort Worth Center
10:22AM 33.3031 -97.5478 135° Southeast 289 333 9,800 -1,800 Descending Fort Worth Center
10:23AM 33.2444 -97.4731 133° Southeast 284 327 7,500 -2,100 Descending Fort Worth Center
10:24AM 33.1925 -97.4108 135° Southeast 278 320 5,600 -1,260 Descending Fort Worth Center
10:25AM 33.1381 -97.3389 132° Southeast 271 312 5,000 -420 Descending Fort Worth Center
10:26AM 33.0983 -97.2869 132° Southeast 253 291 4,800 -540 Descending Fort Worth Center
10:27AM 33.0503 -97.2300 135° Southeast 225 259 4,000 -780 Descending Fort Worth Center
10:28AM 33.0147 -97.1953 141° Southeast 195 224 3,300 -900 Descending Fort Worth Center
10:29AM 32.9814 -97.1533 133° Southeast 170 196 2,300 -840 Descending Fort Worth Center
10:30AM 32.9519 -97.1286 145° Southeast 158 182 1,700 -600 Descending Fort Worth Center
10:31AM 32.9247 -97.0992 138° Southeast 142 163 1,100 -540 Descending Fort Worth Center
10:32AM 32.8956 -97.0694 139° Southeast 131 151 700 -420 Descending Fort Worth Center